sensor_id;sensor_type;location;lat;lon;timestamp;P1;durP1;ratioP1;P2;durP2;ratioP2
15843;SDS011;50807;52.436;13.346;2024-03-07T00:00:02;40.20;;;30.57;;
15843;SDS011;50807;52.436;13.346;2024-03-07T00:00:44;38.53;;;29.83;;
15843;SDS011;50807;52.436;13.346;2024-03-07T00:01:15;38.45;;;29.13;;
15843;SDS011;50807;52.436;13.346;2024-03-07T00:01:46;38.33;;;30.02;;
15843;SDS011;50807;52.436;13.346;2024-03-07T00:02:18;38.10;;;31.13;;
15843;SDS011;50807;52.436;13.346;2024-03-07T00:02:50;37.83;;;30.70;;
15843;SDS011;50807;52.436;13.346;2024-03-07T00:03:21;38.95;;;31.33;;
15843;SDS011;50807;52.436;13.346;2024-03-07T00:03:54;36.50;;;29.58;;
15843;SDS011;50807;52.436;13.346;2024-03-07T00:04:26;37.42;;;29.73;;
15843;SDS011;50807;52.436;13.346;2024-03-07T00:04:56;36.30;;;30.10;;
15843;SDS011;50807;52.436;13.346;2024-03-07T00:05:27;37.17;;;29.60;;
15843;SDS011;50807;52.436;13.346;2024-03-07T00:05:58;40.43;;;31.17;;
15843;SDS011;50807;52.436;13.346;2024-03-07T00:06:30;37.25;;;30.50;;
15843;SDS011;50807;52.436;13.346;2024-03-07T00:07:01;38.17;;;29.33;;
15843;SDS011;50807;52.436;13.346;2024-03-07T00:07:34;38.25;;;32.05;;
15843;SDS011;50807;52.436;13.346;2024-03-07T00:08:07;39.30;;;30.15;;
15843;SDS011;50807;52.436;13.346;2024-03-07T00:08:40;38.75;;;30.35;;
15843;SDS011;50807;52.436;13.346;2024-03-07T00:09:10;40.90;;;31.60;;
15843;SDS011;50807;52.436;13.346;2024-03-07T00:09:41;39.90;;;30.53;;
15843;SDS011;50807;52.436;13.346;2024-03-07T00:10:12;37.87;;;30.10;;
15843;SDS011;50807;52.436;13.346;2024-03-07T00:10:45;38.00;;;30.05;;
15843;SDS011;50807;52.436;13.346;2024-03-07T00:11:16;36.40;;;30.77;;
15843;SDS011;50807;52.436;13.346;2024-03-07T00:11:47;38.25;;;30.40;;
15843;SDS011;50807;52.436;13.346;2024-03-07T00:12:18;36.03;;;30.37;;
15843;SDS011;50807;52.436;13.346;2024-03-07T00:12:49;37.85;;;30.98;;
15843;SDS011;50807;52.436;13.346;2024-03-07T00:13:20;41.27;;;32.50;;
15843;SDS011;50807;52.436;13.346;2024-03-07T00:13:51;39.43;;;31.23;;
15843;SDS011;50807;52.436;13.346;2024-03-07T00:14:22;42.57;;;30.30;;
15843;SDS011;50807;52.436;13.346;2024-03-07T00:14:56;40.03;;;30.55;;
15843;SDS011;50807;52.436;13.346;2024-03-07T00:15:27;41.73;;;33.57;;
15843;SDS011;50807;52.436;13.346;2024-03-07T00:16:00;41.30;;;32.88;;
15843;SDS011;50807;52.436;13.346;2024-03-07T00:16:32;41.72;;;31.95;;
15843;SDS011;50807;52.436;13.346;2024-03-07T00:17:03;41.88;;;32.42;;
15843;SDS011;50807;52.436;13.346;2024-03-07T00:17:34;42.13;;;31.43;;
15843;SDS011;50807;52.436;13.346;2024-03-07T00:18:05;41.57;;;33.03;;
15843;SDS011;50807;52.436;13.346;2024-03-07T00:18:37;41.80;;;31.60;;
15843;SDS011;50807;52.436;13.346;2024-03-07T00:19:08;40.90;;;31.85;;
15843;SDS011;50807;52.436;13.346;2024-03-07T00:19:39;40.97;;;31.83;;
15843;SDS011;50807;52.436;13.346;2024-03-07T00:20:10;39.77;;;31.47;;
15843;SDS011;50807;52.436;13.346;2024-03-07T00:20:45;38.28;;;32.42;;
15843;SDS011;50807;52.436;13.346;2024-03-07T00:21:15;44.17;;;33.07;;
15843;SDS011;50807;52.436;13.346;2024-03-07T00:21:46;40.35;;;31.98;;
15843;SDS011;50807;52.436;13.346;2024-03-07T00:22:17;42.73;;;31.70;;
15843;SDS011;50807;52.436;13.346;2024-03-07T00:22:50;40.65;;;32.03;;
15843;SDS011;50807;52.436;13.346;2024-03-07T00:23:21;41.33;;;32.05;;
15843;SDS011;50807;52.436;13.346;2024-03-07T00:23:51;36.40;;;31.00;;
15843;SDS011;50807;52.436;13.346;2024-03-07T00:24:24;40.28;;;31.75;;
15843;SDS011;50807;52.436;13.346;2024-03-07T00:24:57;40.75;;;32.15;;
15843;SDS011;50807;52.436;13.346;2024-03-07T00:25:29;39.90;;;32.13;;
15843;SDS011;50807;52.436;13.346;2024-03-07T00:26:01;40.25;;;31.92;;
15843;SDS011;50807;52.436;13.346;2024-03-07T00:26:33;42.53;;;33.67;;
15843;SDS011;50807;52.436;13.346;2024-03-07T00:27:04;43.77;;;32.67;;
15843;SDS011;50807;52.436;13.346;2024-03-07T00:27:34;42.20;;;33.00;;
15843;SDS011;50807;52.436;13.346;2024-03-07T00:28:06;41.78;;;31.33;;
15843;SDS011;50807;52.436;13.346;2024-03-07T00:28:36;40.97;;;31.47;;
15843;SDS011;50807;52.436;13.346;2024-03-07T00:29:09;42.15;;;32.72;;
15843;SDS011;50807;52.436;13.346;2024-03-07T00:29:40;42.17;;;32.55;;
15843;SDS011;50807;52.436;13.346;2024-03-07T00:30:11;35.47;;;28.50;;
15843;SDS011;50807;52.436;13.346;2024-03-07T00:30:43;44.72;;;32.28;;
15843;SDS011;50807;52.436;13.346;2024-03-07T00:31:15;42.00;;;32.20;;
15843;SDS011;50807;52.436;13.346;2024-03-07T00:31:47;40.08;;;31.98;;
15843;SDS011;50807;52.436;13.346;2024-03-07T00:32:18;41.65;;;32.30;;
15843;SDS011;50807;52.436;13.346;2024-03-07T00:32:49;39.95;;;31.42;;
15843;SDS011;50807;52.436;13.346;2024-03-07T00:33:21;41.22;;;31.85;;
15843;SDS011;50807;52.436;13.346;2024-03-07T00:33:52;42.38;;;32.65;;
15843;SDS011;50807;52.436;13.346;2024-03-07T00:34:22;39.20;;;31.47;;
15843;SDS011;50807;52.436;13.346;2024-03-07T00:34:53;41.47;;;31.13;;
15843;SDS011;50807;52.436;13.346;2024-03-07T00:35:25;39.92;;;30.85;;
15843;SDS011;50807;52.436;13.346;2024-03-07T00:35:55;42.73;;;32.97;;
15843;SDS011;50807;52.436;13.346;2024-03-07T00:36:26;44.07;;;33.20;;
15843;SDS011;50807;52.436;13.346;2024-03-07T00:36:57;41.10;;;31.20;;
15843;SDS011;50807;52.436;13.346;2024-03-07T00:37:29;39.47;;;31.52;;
15843;SDS011;50807;52.436;13.346;2024-03-07T00:38:02;40.10;;;32.35;;
15843;SDS011;50807;52.436;13.346;2024-03-07T00:38:33;40.42;;;31.83;;
15843;SDS011;50807;52.436;13.346;2024-03-07T00:39:04;43.13;;;32.17;;
15843;SDS011;50807;52.436;13.346;2024-03-07T00:39:38;41.70;;;32.63;;
15843;SDS011;50807;52.436;13.346;2024-03-07T00:40:09;39.87;;;30.93;;
15843;SDS011;50807;52.436;13.346;2024-03-07T00:40:41;41.63;;;32.60;;
15843;SDS011;50807;52.436;13.346;2024-03-07T00:41:11;40.83;;;32.10;;
15843;SDS011;50807;52.436;13.346;2024-03-07T00:41:42;43.07;;;32.53;;
15843;SDS011;50807;52.436;13.346;2024-03-07T00:42:14;41.47;;;33.78;;
15843;SDS011;50807;52.436;13.346;2024-03-07T00:42:44;40.67;;;32.50;;
15843;SDS011;50807;52.436;13.346;2024-03-07T00:43:15;39.37;;;32.00;;
15843;SDS011;50807;52.436;13.346;2024-03-07T00:43:46;39.23;;;30.77;;
15843;SDS011;50807;52.436;13.346;2024-03-07T00:44:18;43.97;;;33.67;;
15843;SDS011;50807;52.436;13.346;2024-03-07T00:44:49;41.70;;;32.37;;
15843;SDS011;50807;52.436;13.346;2024-03-07T00:45:19;40.83;;;32.93;;
15843;SDS011;50807;52.436;13.346;2024-03-07T00:45:50;40.90;;;31.50;;
15843;SDS011;50807;52.436;13.346;2024-03-07T00:46:22;41.53;;;31.65;;
15843;SDS011;50807;52.436;13.346;2024-03-07T00:46:53;44.00;;;33.27;;
15843;SDS011;50807;52.436;13.346;2024-03-07T00:47:23;42.57;;;33.17;;
15843;SDS011;50807;52.436;13.346;2024-03-07T00:47:54;41.23;;;31.87;;
15843;SDS011;50807;52.436;13.346;2024-03-07T00:48:26;42.70;;;32.05;;
15843;SDS011;50807;52.436;13.346;2024-03-07T00:48:56;42.00;;;32.40;;
15843;SDS011;50807;52.436;13.346;2024-03-07T00:49:27;41.87;;;33.60;;
15843;SDS011;50807;52.436;13.346;2024-03-07T00:49:58;50.80;;;33.22;;
15843;SDS011;50807;52.436;13.346;2024-03-07T00:50:30;41.50;;;31.45;;
15843;SDS011;50807;52.436;13.346;2024-03-07T00:51:02;45.72;;;31.90;;
15843;SDS011;50807;52.436;13.346;2024-03-07T00:51:34;43.22;;;32.95;;
15843;SDS011;50807;52.436;13.346;2024-03-07T00:52:05;41.83;;;31.65;;
15843;SDS011;50807;52.436;13.346;2024-03-07T00:52:36;41.90;;;31.80;;
15843;SDS011;50807;52.436;13.346;2024-03-07T00:53:10;41.47;;;31.80;;
15843;SDS011;50807;52.436;13.346;2024-03-07T00:53:41;44.60;;;33.15;;
15843;SDS011;50807;52.436;13.346;2024-03-07T00:54:11;44.83;;;33.00;;
15843;SDS011;50807;52.436;13.346;2024-03-07T00:54:43;45.28;;;31.60;;
15843;SDS011;50807;52.436;13.346;2024-03-07T00:55:14;41.30;;;31.20;;
15843;SDS011;50807;52.436;13.346;2024-03-07T00:55:45;39.60;;;31.23;;
15843;SDS011;50807;52.436;13.346;2024-03-07T00:56:16;43.47;;;32.40;;
15843;SDS011;50807;52.436;13.346;2024-03-07T00:56:47;45.40;;;32.13;;
15843;SDS011;50807;52.436;13.346;2024-03-07T00:57:19;38.58;;;32.78;;
15843;SDS011;50807;52.436;13.346;2024-03-07T00:57:50;40.65;;;31.60;;
15843;SDS011;50807;52.436;13.346;2024-03-07T00:58:21;42.57;;;32.13;;
15843;SDS011;50807;52.436;13.346;2024-03-07T00:58:52;39.10;;;30.63;;
15843;SDS011;50807;52.436;13.346;2024-03-07T00:59:22;39.13;;;31.73;;
15843;SDS011;50807;52.436;13.346;2024-03-07T00:59:53;41.53;;;33.00;;
15843;SDS011;50807;52.436;13.346;2024-03-07T01:00:26;43.35;;;31.00;;
15843;SDS011;50807;52.436;13.346;2024-03-07T01:00:58;38.65;;;32.00;;
15843;SDS011;50807;52.436;13.346;2024-03-07T01:01:29;38.37;;;31.27;;
15843;SDS011;50807;52.436;13.346;2024-03-07T01:02:01;39.78;;;30.48;;
15843;SDS011;50807;52.436;13.346;2024-03-07T01:02:32;39.53;;;31.33;;
15843;SDS011;50807;52.436;13.346;2024-03-07T01:03:04;41.90;;;32.25;;
15843;SDS011;50807;52.436;13.346;2024-03-07T01:03:35;43.08;;;32.22;;
15843;SDS011;50807;52.436;13.346;2024-03-07T01:04:07;40.17;;;31.02;;
15843;SDS011;50807;52.436;13.346;2024-03-07T01:04:39;44.15;;;31.73;;
15843;SDS011;50807;52.436;13.346;2024-03-07T01:05:10;39.10;;;30.03;;
15843;SDS011;50807;52.436;13.346;2024-03-07T01:05:43;39.67;;;31.83;;
15843;SDS011;50807;52.436;13.346;2024-03-07T01:06:14;41.17;;;31.80;;
15843;SDS011;50807;52.436;13.346;2024-03-07T01:06:45;43.05;;;32.95;;
15843;SDS011;50807;52.436;13.346;2024-03-07T01:07:16;42.08;;;31.92;;
15843;SDS011;50807;52.436;13.346;2024-03-07T01:07:47;45.93;;;31.70;;
15843;SDS011;50807;52.436;13.346;2024-03-07T01:08:20;40.05;;;32.10;;
15843;SDS011;50807;52.436;13.346;2024-03-07T01:08:51;43.85;;;32.92;;
15843;SDS011;50807;52.436;13.346;2024-03-07T01:09:22;39.60;;;31.43;;
15843;SDS011;50807;52.436;13.346;2024-03-07T01:09:53;41.30;;;31.33;;
15843;SDS011;50807;52.436;13.346;2024-03-07T01:10:25;45.88;;;33.47;;
15843;SDS011;50807;52.436;13.346;2024-03-07T01:10:55;40.83;;;30.47;;
15843;SDS011;50807;52.436;13.346;2024-03-07T01:11:26;41.03;;;32.43;;
15843;SDS011;50807;52.436;13.346;2024-03-07T01:11:57;42.47;;;32.57;;
15843;SDS011;50807;52.436;13.346;2024-03-07T01:12:29;41.88;;;31.17;;
15843;SDS011;50807;52.436;13.346;2024-03-07T01:13:00;42.03;;;30.73;;
15843;SDS011;50807;52.436;13.346;2024-03-07T01:13:32;42.75;;;32.10;;
15843;SDS011;50807;52.436;13.346;2024-03-07T01:14:02;44.23;;;32.23;;
15843;SDS011;50807;52.436;13.346;2024-03-07T01:14:34;44.53;;;31.08;;
15843;SDS011;50807;52.436;13.346;2024-03-07T01:15:05;44.60;;;30.98;;
15843;SDS011;50807;52.436;13.346;2024-03-07T01:15:38;43.78;;;32.22;;
15843;SDS011;50807;52.436;13.346;2024-03-07T01:16:09;41.47;;;30.98;;
15843;SDS011;50807;52.436;13.346;2024-03-07T01:16:41;47.92;;;32.38;;
15843;SDS011;50807;52.436;13.346;2024-03-07T01:17:12;41.80;;;30.50;;
15843;SDS011;50807;52.436;13.346;2024-03-07T01:17:43;41.20;;;31.57;;
15843;SDS011;50807;52.436;13.346;2024-03-07T01:18:14;41.78;;;31.42;;
15843;SDS011;50807;52.436;13.346;2024-03-07T01:18:47;41.85;;;31.23;;
15843;SDS011;50807;52.436;13.346;2024-03-07T01:19:19;44.28;;;30.92;;
15843;SDS011;50807;52.436;13.346;2024-03-07T01:19:49;41.27;;;32.13;;
15843;SDS011;50807;52.436;13.346;2024-03-07T01:20:21;36.58;;;31.77;;
15843;SDS011;50807;52.436;13.346;2024-03-07T01:20:55;41.40;;;30.92;;
15843;SDS011;50807;52.436;13.346;2024-03-07T01:21:26;40.97;;;31.50;;
15843;SDS011;50807;52.436;13.346;2024-03-07T01:21:56;36.60;;;29.23;;
15843;SDS011;50807;52.436;13.346;2024-03-07T01:22:28;40.38;;;31.40;;
15843;SDS011;50807;52.436;13.346;2024-03-07T01:22:59;44.20;;;31.93;;
15843;SDS011;50807;52.436;13.346;2024-03-07T01:23:31;40.57;;;31.13;;
15843;SDS011;50807;52.436;13.346;2024-03-07T01:24:02;40.90;;;31.55;;
15843;SDS011;50807;52.436;13.346;2024-03-07T01:24:34;41.03;;;29.98;;
15843;SDS011;50807;52.436;13.346;2024-03-07T01:25:05;40.43;;;31.40;;
15843;SDS011;50807;52.436;13.346;2024-03-07T01:25:36;38.75;;;29.73;;
15843;SDS011;50807;52.436;13.346;2024-03-07T01:26:07;39.57;;;30.67;;
15843;SDS011;50807;52.436;13.346;2024-03-07T01:26:39;43.63;;;32.88;;
15843;SDS011;50807;52.436;13.346;2024-03-07T01:27:10;40.93;;;31.20;;
15843;SDS011;50807;52.436;13.346;2024-03-07T01:27:40;40.23;;;31.47;;
15843;SDS011;50807;52.436;13.346;2024-03-07T01:28:11;40.27;;;31.30;;
15843;SDS011;50807;52.436;13.346;2024-03-07T01:28:44;41.97;;;30.17;;
15843;SDS011;50807;52.436;13.346;2024-03-07T01:29:15;40.47;;;30.13;;
15843;SDS011;50807;52.436;13.346;2024-03-07T01:29:45;40.33;;;30.90;;
15843;SDS011;50807;52.436;13.346;2024-03-07T01:30:18;42.10;;;31.13;;
15843;SDS011;50807;52.436;13.346;2024-03-07T01:30:49;41.77;;;31.10;;
15843;SDS011;50807;52.436;13.346;2024-03-07T01:31:20;39.07;;;30.70;;
15843;SDS011;50807;52.436;13.346;2024-03-07T01:31:51;40.63;;;30.63;;
15843;SDS011;50807;52.436;13.346;2024-03-07T01:32:22;41.28;;;31.00;;
15843;SDS011;50807;52.436;13.346;2024-03-07T01:32:53;40.53;;;30.47;;
15843;SDS011;50807;52.436;13.346;2024-03-07T01:33:24;40.53;;;29.80;;
15843;SDS011;50807;52.436;13.346;2024-03-07T01:33:55;39.42;;;31.13;;
15843;SDS011;50807;52.436;13.346;2024-03-07T01:34:27;43.60;;;30.63;;
15843;SDS011;50807;52.436;13.346;2024-03-07T01:34:57;38.17;;;29.37;;
15843;SDS011;50807;52.436;13.346;2024-03-07T01:35:28;37.40;;;28.47;;
15843;SDS011;50807;52.436;13.346;2024-03-07T01:35:59;36.37;;;29.17;;
15843;SDS011;50807;52.436;13.346;2024-03-07T01:36:30;38.55;;;29.38;;
15843;SDS011;50807;52.436;13.346;2024-03-07T01:37:01;41.25;;;30.73;;
15843;SDS011;50807;52.436;13.346;2024-03-07T01:37:32;41.00;;;30.97;;
15843;SDS011;50807;52.436;13.346;2024-03-07T01:38:03;40.57;;;29.67;;
15843;SDS011;50807;52.436;13.346;2024-03-07T01:38:36;42.17;;;30.17;;
15843;SDS011;50807;52.436;13.346;2024-03-07T01:39:07;38.85;;;29.45;;
15843;SDS011;50807;52.436;13.346;2024-03-07T01:39:38;42.87;;;31.40;;
15843;SDS011;50807;52.436;13.346;2024-03-07T01:40:09;37.17;;;31.07;;
15843;SDS011;50807;52.436;13.346;2024-03-07T01:40:41;35.25;;;28.05;;
15843;SDS011;50807;52.436;13.346;2024-03-07T01:41:13;37.38;;;29.55;;
15843;SDS011;50807;52.436;13.346;2024-03-07T01:41:44;41.55;;;28.90;;
15843;SDS011;50807;52.436;13.346;2024-03-07T01:42:15;37.17;;;29.37;;
15843;SDS011;50807;52.436;13.346;2024-03-07T01:42:47;36.20;;;28.85;;
15843;SDS011;50807;52.436;13.346;2024-03-07T01:43:20;41.22;;;29.85;;
15843;SDS011;50807;52.436;13.346;2024-03-07T01:43:51;38.15;;;29.00;;
15843;SDS011;50807;52.436;13.346;2024-03-07T01:44:23;38.15;;;29.52;;
15843;SDS011;50807;52.436;13.346;2024-03-07T01:44:53;38.97;;;28.80;;
15843;SDS011;50807;52.436;13.346;2024-03-07T01:45:24;36.23;;;28.17;;
15843;SDS011;50807;52.436;13.346;2024-03-07T01:45:55;38.67;;;29.23;;
15843;SDS011;50807;52.436;13.346;2024-03-07T01:46:28;38.10;;;28.88;;
15843;SDS011;50807;52.436;13.346;2024-03-07T01:47:00;36.25;;;27.77;;
15843;SDS011;50807;52.436;13.346;2024-03-07T01:47:33;35.35;;;28.05;;
15843;SDS011;50807;52.436;13.346;2024-03-07T01:48:04;35.08;;;29.15;;
15843;SDS011;50807;52.436;13.346;2024-03-07T01:48:37;32.50;;;27.40;;
15843;SDS011;50807;52.436;13.346;2024-03-07T01:49:10;36.38;;;28.55;;
15843;SDS011;50807;52.436;13.346;2024-03-07T01:49:41;35.22;;;27.25;;
15843;SDS011;50807;52.436;13.346;2024-03-07T01:50:12;35.80;;;28.47;;
15843;SDS011;50807;52.436;13.346;2024-03-07T01:50:42;38.10;;;28.27;;
15843;SDS011;50807;52.436;13.346;2024-03-07T01:51:15;37.22;;;28.30;;
15843;SDS011;50807;52.436;13.346;2024-03-07T01:51:46;39.28;;;29.45;;
15843;SDS011;50807;52.436;13.346;2024-03-07T01:52:18;40.10;;;30.20;;
15843;SDS011;50807;52.436;13.346;2024-03-07T01:52:49;37.13;;;28.98;;
15843;SDS011;50807;52.436;13.346;2024-03-07T01:53:22;35.65;;;28.70;;
15843;SDS011;50807;52.436;13.346;2024-03-07T01:53:55;39.75;;;30.65;;
15843;SDS011;50807;52.436;13.346;2024-03-07T01:54:26;37.88;;;29.50;;
15843;SDS011;50807;52.436;13.346;2024-03-07T01:54:58;37.78;;;29.13;;
15843;SDS011;50807;52.436;13.346;2024-03-07T01:55:30;40.25;;;31.13;;
15843;SDS011;50807;52.436;13.346;2024-03-07T01:56:03;36.50;;;29.52;;
15843;SDS011;50807;52.436;13.346;2024-03-07T01:56:36;37.33;;;28.63;;
15843;SDS011;50807;52.436;13.346;2024-03-07T01:57:07;38.75;;;29.05;;
15843;SDS011;50807;52.436;13.346;2024-03-07T01:57:38;37.72;;;29.35;;
15843;SDS011;50807;52.436;13.346;2024-03-07T01:58:09;38.95;;;30.17;;
15843;SDS011;50807;52.436;13.346;2024-03-07T01:58:48;38.15;;;28.73;;
15843;SDS011;50807;52.436;13.346;2024-03-07T01:59:22;35.53;;;28.55;;
15843;SDS011;50807;52.436;13.346;2024-03-07T01:59:53;41.08;;;29.38;;
15843;SDS011;50807;52.436;13.346;2024-03-07T02:00:25;34.60;;;28.40;;
15843;SDS011;50807;52.436;13.346;2024-03-07T02:00:56;41.25;;;28.05;;
15843;SDS011;50807;52.436;13.346;2024-03-07T02:01:28;39.15;;;29.67;;
15843;SDS011;50807;52.436;13.346;2024-03-07T02:01:59;37.72;;;27.50;;
15843;SDS011;50807;52.436;13.346;2024-03-07T02:02:32;38.88;;;28.83;;
15843;SDS011;50807;52.436;13.346;2024-03-07T02:03:04;35.70;;;27.67;;
15843;SDS011;50807;52.436;13.346;2024-03-07T02:03:37;34.60;;;27.85;;
15843;SDS011;50807;52.436;13.346;2024-03-07T02:04:07;38.77;;;28.50;;
15843;SDS011;50807;52.436;13.346;2024-03-07T02:04:39;33.90;;;27.25;;
15843;SDS011;50807;52.436;13.346;2024-03-07T02:05:10;32.43;;;26.07;;
15843;SDS011;50807;52.436;13.346;2024-03-07T02:05:41;34.30;;;26.43;;
15843;SDS011;50807;52.436;13.346;2024-03-07T02:06:12;37.08;;;27.75;;
15843;SDS011;50807;52.436;13.346;2024-03-07T02:06:43;33.07;;;26.83;;
15843;SDS011;50807;52.436;13.346;2024-03-07T02:07:14;37.67;;;28.20;;
15843;SDS011;50807;52.436;13.346;2024-03-07T02:07:45;36.07;;;26.40;;
15843;SDS011;50807;52.436;13.346;2024-03-07T02:08:17;38.78;;;28.58;;
15843;SDS011;50807;52.436;13.346;2024-03-07T02:08:49;37.58;;;28.38;;
15843;SDS011;50807;52.436;13.346;2024-03-07T02:09:22;36.58;;;28.23;;
15843;SDS011;50807;52.436;13.346;2024-03-07T02:09:58;40.67;;;28.67;;
15843;SDS011;50807;52.436;13.346;2024-03-07T02:10:30;33.17;;;26.75;;
15843;SDS011;50807;52.436;13.346;2024-03-07T02:11:01;36.93;;;27.00;;
15843;SDS011;50807;52.436;13.346;2024-03-07T02:11:32;39.33;;;28.70;;
15843;SDS011;50807;52.436;13.346;2024-03-07T02:12:03;36.20;;;27.70;;
15843;SDS011;50807;52.436;13.346;2024-03-07T02:12:34;32.33;;;27.13;;
15843;SDS011;50807;52.436;13.346;2024-03-07T02:13:06;37.28;;;28.77;;
15843;SDS011;50807;52.436;13.346;2024-03-07T02:13:37;37.67;;;28.23;;
15843;SDS011;50807;52.436;13.346;2024-03-07T02:14:08;35.73;;;27.53;;
15843;SDS011;50807;52.436;13.346;2024-03-07T02:14:39;37.77;;;28.07;;
15843;SDS011;50807;52.436;13.346;2024-03-07T02:15:09;37.63;;;27.70;;
15843;SDS011;50807;52.436;13.346;2024-03-07T02:15:43;32.60;;;26.55;;
15843;SDS011;50807;52.436;13.346;2024-03-07T02:16:14;34.10;;;27.40;;
15843;SDS011;50807;52.436;13.346;2024-03-07T02:16:45;36.23;;;27.00;;
15843;SDS011;50807;52.436;13.346;2024-03-07T02:17:16;35.97;;;29.03;;
15843;SDS011;50807;52.436;13.346;2024-03-07T02:17:48;34.47;;;28.20;;
15843;SDS011;50807;52.436;13.346;2024-03-07T02:18:19;36.83;;;28.40;;
15843;SDS011;50807;52.436;13.346;2024-03-07T02:18:50;32.83;;;27.63;;
15843;SDS011;50807;52.436;13.346;2024-03-07T02:19:21;34.87;;;27.37;;
15843;SDS011;50807;52.436;13.346;2024-03-07T02:19:53;37.30;;;28.98;;
15843;SDS011;50807;52.436;13.346;2024-03-07T02:20:24;39.40;;;28.50;;
15843;SDS011;50807;52.436;13.346;2024-03-07T02:20:56;33.77;;;26.87;;
15843;SDS011;50807;52.436;13.346;2024-03-07T02:21:27;34.03;;;27.35;;
15843;SDS011;50807;52.436;13.346;2024-03-07T02:21:58;38.30;;;28.20;;
15843;SDS011;50807;52.436;13.346;2024-03-07T02:22:29;35.88;;;27.27;;
15843;SDS011;50807;52.436;13.346;2024-03-07T02:23:00;35.30;;;28.05;;
15843;SDS011;50807;52.436;13.346;2024-03-07T02:23:32;32.33;;;26.83;;
15843;SDS011;50807;52.436;13.346;2024-03-07T02:24:04;35.05;;;28.10;;
15843;SDS011;50807;52.436;13.346;2024-03-07T02:24:35;33.17;;;26.83;;
15843;SDS011;50807;52.436;13.346;2024-03-07T02:25:06;36.33;;;27.40;;
15843;SDS011;50807;52.436;13.346;2024-03-07T02:25:39;34.05;;;27.85;;
15843;SDS011;50807;52.436;13.346;2024-03-07T02:26:11;36.38;;;28.60;;
15843;SDS011;50807;52.436;13.346;2024-03-07T02:26:42;31.57;;;27.13;;
15843;SDS011;50807;52.436;13.346;2024-03-07T02:27:13;34.80;;;27.73;;
15843;SDS011;50807;52.436;13.346;2024-03-07T02:27:44;33.80;;;28.07;;
15843;SDS011;50807;52.436;13.346;2024-03-07T02:28:16;32.97;;;27.13;;
15843;SDS011;50807;52.436;13.346;2024-03-07T02:28:47;34.63;;;27.03;;
15843;SDS011;50807;52.436;13.346;2024-03-07T02:29:17;35.40;;;27.23;;
15843;SDS011;50807;52.436;13.346;2024-03-07T02:29:49;36.47;;;28.52;;
15843;SDS011;50807;52.436;13.346;2024-03-07T02:30:21;36.03;;;27.42;;
15843;SDS011;50807;52.436;13.346;2024-03-07T02:30:52;36.53;;;28.53;;
15843;SDS011;50807;52.436;13.346;2024-03-07T02:31:23;31.27;;;27.30;;
15843;SDS011;50807;52.436;13.346;2024-03-07T02:32:05;35.72;;;27.20;;
15843;SDS011;50807;52.436;13.346;2024-03-07T02:32:35;35.77;;;27.83;;
15843;SDS011;50807;52.436;13.346;2024-03-07T02:33:07;35.80;;;28.58;;
15843;SDS011;50807;52.436;13.346;2024-03-07T02:33:38;33.97;;;27.30;;
15843;SDS011;50807;52.436;13.346;2024-03-07T02:34:11;34.42;;;27.98;;
15843;SDS011;50807;52.436;13.346;2024-03-07T02:34:42;34.17;;;26.97;;
15843;SDS011;50807;52.436;13.346;2024-03-07T02:35:13;32.90;;;27.13;;
15843;SDS011;50807;52.436;13.346;2024-03-07T02:35:45;32.47;;;27.50;;
15843;SDS011;50807;52.436;13.346;2024-03-07T02:36:20;35.92;;;26.45;;
15843;SDS011;50807;52.436;13.346;2024-03-07T02:36:51;33.28;;;27.00;;
15843;SDS011;50807;52.436;13.346;2024-03-07T02:37:22;33.37;;;28.00;;
15843;SDS011;50807;52.436;13.346;2024-03-07T02:37:52;36.17;;;27.57;;
15843;SDS011;50807;52.436;13.346;2024-03-07T02:38:24;39.47;;;28.95;;
15843;SDS011;50807;52.436;13.346;2024-03-07T02:38:55;34.87;;;27.70;;
15843;SDS011;50807;52.436;13.346;2024-03-07T02:39:25;35.00;;;27.97;;
15843;SDS011;50807;52.436;13.346;2024-03-07T02:39:56;32.67;;;27.43;;
15843;SDS011;50807;52.436;13.346;2024-03-07T02:40:28;34.47;;;27.63;;
15843;SDS011;50807;52.436;13.346;2024-03-07T02:41:00;35.28;;;27.23;;
15843;SDS011;50807;52.436;13.346;2024-03-07T02:41:31;33.30;;;27.83;;
15843;SDS011;50807;52.436;13.346;2024-03-07T02:42:04;34.38;;;28.27;;
15843;SDS011;50807;52.436;13.346;2024-03-07T02:42:35;35.17;;;27.08;;
15843;SDS011;50807;52.436;13.346;2024-03-07T02:43:06;33.38;;;27.23;;
15843;SDS011;50807;52.436;13.346;2024-03-07T02:43:37;37.53;;;29.57;;
15843;SDS011;50807;52.436;13.346;2024-03-07T02:44:08;36.67;;;28.50;;
15843;SDS011;50807;52.436;13.346;2024-03-07T02:44:39;33.93;;;28.63;;
15843;SDS011;50807;52.436;13.346;2024-03-07T02:45:10;31.38;;;26.73;;
15843;SDS011;50807;52.436;13.346;2024-03-07T02:45:44;36.40;;;27.95;;
15843;SDS011;50807;52.436;13.346;2024-03-07T02:46:16;37.63;;;29.05;;
15843;SDS011;50807;52.436;13.346;2024-03-07T02:46:46;32.93;;;27.50;;
15843;SDS011;50807;52.436;13.346;2024-03-07T02:47:17;33.73;;;26.77;;
15843;SDS011;50807;52.436;13.346;2024-03-07T02:47:48;33.63;;;26.73;;
15843;SDS011;50807;52.436;13.346;2024-03-07T02:48:20;31.85;;;27.38;;
15843;SDS011;50807;52.436;13.346;2024-03-07T02:48:50;33.83;;;28.77;;
15843;SDS011;50807;52.436;13.346;2024-03-07T02:49:21;35.27;;;27.77;;
15843;SDS011;50807;52.436;13.346;2024-03-07T02:49:52;33.20;;;28.00;;
15843;SDS011;50807;52.436;13.346;2024-03-07T02:50:23;34.28;;;28.25;;
15843;SDS011;50807;52.436;13.346;2024-03-07T02:50:54;33.03;;;26.50;;
15843;SDS011;50807;52.436;13.346;2024-03-07T02:51:26;39.20;;;30.40;;
15843;SDS011;50807;52.436;13.346;2024-03-07T02:51:57;34.55;;;28.20;;
15843;SDS011;50807;52.436;13.346;2024-03-07T02:52:29;34.47;;;27.77;;
15843;SDS011;50807;52.436;13.346;2024-03-07T02:52:59;31.17;;;26.60;;
15843;SDS011;50807;52.436;13.346;2024-03-07T02:53:30;34.73;;;27.73;;
15843;SDS011;50807;52.436;13.346;2024-03-07T02:54:01;36.93;;;28.60;;
15843;SDS011;50807;52.436;13.346;2024-03-07T02:54:35;34.13;;;27.70;;
15843;SDS011;50807;52.436;13.346;2024-03-07T02:55:06;32.63;;;28.53;;
15843;SDS011;50807;52.436;13.346;2024-03-07T02:55:40;32.83;;;27.67;;
15843;SDS011;50807;52.436;13.346;2024-03-07T02:56:12;34.30;;;28.50;;
15843;SDS011;50807;52.436;13.346;2024-03-07T02:56:43;35.73;;;27.77;;
15843;SDS011;50807;52.436;13.346;2024-03-07T02:57:13;35.57;;;27.97;;
15843;SDS011;50807;52.436;13.346;2024-03-07T02:57:44;35.43;;;28.17;;
15843;SDS011;50807;52.436;13.346;2024-03-07T02:58:15;36.27;;;28.07;;
15843;SDS011;50807;52.436;13.346;2024-03-07T02:58:47;31.35;;;26.77;;
15843;SDS011;50807;52.436;13.346;2024-03-07T02:59:17;37.40;;;27.43;;
15843;SDS011;50807;52.436;13.346;2024-03-07T02:59:48;33.63;;;26.77;;
15843;SDS011;50807;52.436;13.346;2024-03-07T03:00:19;35.70;;;27.63;;
15843;SDS011;50807;52.436;13.346;2024-03-07T03:00:51;36.60;;;27.53;;
15843;SDS011;50807;52.436;13.346;2024-03-07T03:01:29;36.20;;;27.80;;